Time;durP1;ratioP1;P1;durP2;ratioP2;P2;SDS_P1;SDS_P2;PMS_P1;PMS_P2;Temp;Humidity;BMP_temperature;BMP_pressure;BME280_temperature;BME280_humidity;BME280_pressure;Samples;Min_cycle;Max_cycle;Signal;HPM_P1;HPM_P2
2022/08/27 00:01:27;;;;;;;5.90;3.30;;;17.90;1.00;;;;;;5074548;28;20555;-71
2022/08/27 00:03:54;;;;;;;5.90;2.97;;;18.00;1.00;;;;;;5074340;28;20509;-71
2022/08/27 00:06:20;;;;;;;6.37;3.30;;;18.10;1.00;;;;;;5074650;28;20172;-72
2022/08/27 00:08:47;;;;;;;3.97;3.20;;;18.10;1.00;;;;;;5072951;28;20235;-71
2022/08/27 00:11:13;;;;;;;6.17;2.90;;;18.00;1.00;;;;;;5074978;28;20184;-71
2022/08/27 00:13:39;;;;;;;6.67;2.93;;;18.00;1.00;;;;;;5074633;28;20173;-71
2022/08/27 00:16:07;;;;;;;4.37;2.97;;;17.90;1.00;;;;;;5074405;28;20291;-71
2022/08/27 00:18:34;;;;;;;3.27;2.73;;;17.90;1.00;;;;;;5073656;28;20340;-71
2022/08/27 00:21:01;;;;;;;7.87;3.10;;;17.80;1.00;;;;;;5074384;28;20176;-70
2022/08/27 00:23:28;;;;;;;6.00;3.50;;;17.80;1.00;;;;;;5074367;28;20220;-71
2022/08/27 00:25:54;;;;;;;8.23;3.47;;;17.80;1.00;;;;;;5074232;28;20185;-71
2022/08/27 00:28:19;;;;;;;4.33;2.90;;;17.80;1.00;;;;;;5073935;28;20256;-71
2022/08/27 00:30:45;;;;;;;7.23;3.07;;;17.90;1.00;;;;;;5074317;28;20177;-71
2022/08/27 00:33:12;;;;;;;6.77;2.77;;;17.90;1.00;;;;;;5073738;28;20180;-70
2022/08/27 00:35:37;;;;;;;4.50;3.30;;;18.00;1.00;;;;;;5073949;28;20169;-70
2022/08/27 00:38:05;;;;;;;3.10;2.80;;;18.10;1.00;;;;;;5073852;28;20208;-71
2022/08/27 00:40:32;;;;;;;7.83;3.13;;;18.10;1.00;;;;;;5073776;28;20233;-72
2022/08/27 00:43:01;;;;;;;7.23;3.30;;;18.20;1.00;;;;;;5073708;28;20177;-70
2022/08/27 00:45:26;;;;;;;5.97;3.10;;;18.20;1.00;;;;;;5073883;28;20164;-71
2022/08/27 00:47:55;;;;;;;8.00;3.00;;;18.30;1.00;;;;;;5072427;28;20183;-70
2022/08/27 00:50:40;;;;;;;5.27;2.73;;;18.30;1.00;;;;;;5073802;28;20302;-71
2022/08/27 00:53:18;;;;;;;6.20;3.70;;;18.30;1.00;;;;;;5073622;28;20187;-70
2022/08/27 00:55:49;;;;;;;9.43;3.60;;;18.30;1.00;;;;;;5073841;28;20168;-70
2022/08/27 00:58:41;;;;;;;7.07;3.23;;;18.30;1.00;;;;;;5072352;28;20195;-70
2022/08/27 01:01:09;;;;;;;3.97;2.80;;;18.30;1.00;;;;;;5073303;28;20240;-70
2022/08/27 01:03:36;;;;;;;3.77;2.70;;;18.10;1.00;;;;;;5073403;28;20180;-70
2022/08/27 01:06:04;;;;;;;4.53;2.80;;;18.10;1.00;;;;;;5073616;28;20294;-70
2022/08/27 01:08:35;;;;;;;7.47;3.10;;;18.20;1.00;;;;;;5073176;28;20223;-70
2022/08/27 01:11:01;;;;;;;5.93;2.63;;;18.20;1.00;;;;;;5073528;28;20173;-70
2022/08/27 01:13:30;;;;;;;5.30;2.53;;;18.20;1.00;;;;;;5073319;28;20176;-71
2022/08/27 01:15:59;;;;;;;5.27;2.80;;;18.20;1.00;;;;;;5072990;28;20189;-71
2022/08/27 01:18:32;;;;;;;5.97;3.17;;;18.20;1.00;;;;;;5073233;28;20246;-71
2022/08/27 01:21:13;;;;;;;4.80;2.70;;;18.10;1.00;;;;;;5073362;28;20165;-71
2022/08/27 01:23:56;;;;;;;6.53;2.80;;;17.90;1.00;;;;;;5073363;28;20176;-71
2022/08/27 01:26:23;;;;;;;5.60;3.03;;;17.70;1.00;;;;;;5073277;28;20160;-71
2022/08/27 01:28:50;;;;;;;4.63;2.77;;;17.50;1.00;;;;;;5073181;28;20229;-70
2022/08/27 01:31:15;;;;;;;5.83;3.10;;;17.50;1.00;;;;;;5072884;28;20619;-70
2022/08/27 01:33:53;;;;;;;7.40;2.90;;;17.50;1.00;;;;;;5073150;28;20181;-71
2022/08/27 01:36:19;;;;;;;8.63;3.13;;;17.50;1.00;;;;;;5073209;28;20554;-71
2022/08/27 01:38:44;;;;;;;5.83;2.80;;;17.50;1.00;;;;;;5073107;28;20173;-70
2022/08/27 01:41:10;;;;;;;6.77;2.80;;;17.50;1.00;;;;;;5073188;28;20176;-71
2022/08/27 01:43:35;;;;;;;9.50;5.63;;;17.40;1.00;;;;;;5073316;28;20238;-71
2022/08/27 01:46:01;;;;;;;5.03;2.67;;;17.20;1.00;;;;;;5072671;28;20563;-70
2022/08/27 01:48:27;;;;;;;4.30;2.83;;;17.10;1.00;;;;;;5073104;28;20169;-70
2022/08/27 01:50:52;;;;;;;5.13;2.90;;;17.10;1.00;;;;;;5072971;28;20305;-70
2022/08/27 01:53:21;;;;;;;4.57;3.10;;;17.10;1.00;;;;;;5073098;28;20267;-72
2022/08/27 01:55:48;;;;;;;5.63;2.90;;;17.10;1.00;;;;;;5072930;28;20183;-71
2022/08/27 01:58:15;;;;;;;7.93;3.10;;;17.00;1.00;;;;;;5072735;28;20639;-71
2022/08/27 02:00:44;;;;;;;5.43;2.60;;;16.90;1.00;;;;;;5071867;28;20176;-70
2022/08/27 02:03:11;;;;;;;5.47;2.83;;;16.90;1.00;;;;;;5073042;28;20191;-70
2022/08/27 02:05:38;;;;;;;8.03;2.80;;;16.90;1.00;;;;;;5072972;28;20636;-70
2022/08/27 02:08:04;;;;;;;6.40;2.80;;;16.90;1.00;;;;;;5072845;28;20169;-70
2022/08/27 02:10:33;;;;;;;5.80;2.73;;;16.90;1.00;;;;;;5072711;28;20215;-70
2022/08/27 02:13:00;;;;;;;5.83;2.93;;;16.90;1.00;;;;;;5072733;28;20255;-71
2022/08/27 02:15:28;;;;;;;6.67;2.93;;;16.90;1.00;;;;;;5072934;28;20258;-70
2022/08/27 02:17:54;;;;;;;7.17;3.30;;;16.90;1.00;;;;;;5072332;28;20216;-70
2022/08/27 02:20:21;;;;;;;5.93;3.17;;;16.90;1.00;;;;;;5076378;28;20210;-71
2022/08/27 02:22:47;;;;;;;4.50;2.83;;;16.80;1.00;;;;;;5076531;28;20533;-71
2022/08/27 02:25:14;;;;;;;7.63;3.30;;;16.70;1.00;;;;;;5076779;28;20173;-71
2022/08/27 02:27:42;;;;;;;4.17;2.43;;;16.70;1.00;;;;;;5076287;28;20183;-70
2022/08/27 02:30:11;;;;;;;5.10;2.70;;;16.60;1.00;;;;;;5076712;28;20169;-70
2022/08/27 02:32:37;;;;;;;4.07;2.53;;;16.60;1.00;;;;;;5076553;28;20168;-71
2022/08/27 02:35:04;;;;;;;6.73;2.97;;;16.70;1.00;;;;;;5076516;28;20168;-70
2022/08/27 02:37:30;;;;;;;5.00;2.80;;;16.60;1.00;;;;;;5075926;28;20216;-70
2022/08/27 02:39:56;;;;;;;5.80;2.90;;;16.60;1.00;;;;;;5076318;28;20168;-71
2022/08/27 02:42:22;;;;;;;5.40;2.70;;;16.60;1.00;;;;;;5076100;28;20161;-70
2022/08/27 02:44:48;;;;;;;4.60;2.73;;;16.60;1.00;;;;;;5075155;28;20179;-70
2022/08/27 02:47:15;;;;;;;6.33;3.20;;;16.60;1.00;;;;;;5076291;28;20222;-70
2022/08/27 02:49:41;;;;;;;5.07;2.60;;;16.60;1.00;;;;;;5076350;28;20172;-70
2022/08/27 02:52:07;;;;;;;4.07;2.87;;;16.60;1.00;;;;;;5075023;28;20177;-70
2022/08/27 02:54:32;;;;;;;7.53;2.80;;;16.60;1.00;;;;;;5076208;28;20177;-70
2022/08/27 02:56:58;;;;;;;4.53;3.00;;;16.60;1.00;;;;;;5075800;28;20337;-70
2022/08/27 02:59:24;;;;;;;5.13;2.93;;;16.50;1.00;;;;;;5074910;28;20169;-70
2022/08/27 03:01:50;;;;;;;5.43;2.60;;;16.50;1.00;;;;;;5075964;28;20180;-70
2022/08/27 03:04:18;;;;;;;7.43;3.03;;;16.60;1.50;;;;;;5075851;28;20198;-70
2022/08/27 03:06:44;;;;;;;5.23;3.07;;;16.50;1.00;;;;;;5075809;28;20169;-70
2022/08/27 03:09:10;;;;;;;9.37;3.07;;;16.50;4.90;;;;;;5075813;28;20223;-70
2022/08/27 03:11:35;;;;;;;4.97;3.37;;;16.50;5.90;;;;;;5075587;28;20172;-70
2022/08/27 03:14:01;;;;;;;8.67;3.90;;;16.40;11.00;;;;;;5075753;28;20198;-70
2022/08/27 03:16:27;;;;;;;11.10;3.33;;;16.30;19.70;;;;;;5075469;28;20200;-70
2022/08/27 03:18:53;;;;;;;7.37;2.90;;;16.30;25.40;;;;;;5075377;28;20200;-70
2022/08/27 03:21:24;;;;;;;5.17;3.40;;;16.20;26.00;;;;;;5075570;28;20256;-71
2022/08/27 03:23:50;;;;;;;5.77;3.17;;;16.20;22.40;;;;;;5075720;28;20175;-71
2022/08/27 03:26:17;;;;;;;9.83;3.43;;;16.20;25.30;;;;;;5073879;28;20172;-70
2022/08/27 03:28:43;;;;;;;5.50;3.30;;;16.30;24.20;;;;;;5075466;28;20256;-70
2022/08/27 03:31:19;;;;;;;6.20;3.30;;;16.50;20.70;;;;;;5075015;28;20230;-71
2022/08/27 03:33:45;;;;;;;4.50;3.37;;;16.50;19.40;;;;;;5075475;28;20164;-71
2022/08/27 03:36:11;;;;;;;6.07;3.47;;;16.50;17.30;;;;;;5075293;28;20701;-71
2022/08/27 03:38:37;;;;;;;6.47;3.93;;;16.40;21.20;;;;;;5073843;28;20179;-70
2022/08/27 03:41:04;;;;;;;7.03;4.00;;;16.40;19.60;;;;;;5075069;28;20180;-71
2022/08/27 03:43:30;;;;;;;10.20;4.27;;;16.50;22.90;;;;;;5074944;28;20636;-70
2022/08/27 03:45:55;;;;;;;9.83;4.50;;;16.50;20.80;;;;;;5075235;28;20199;-70
2022/08/27 03:48:21;;;;;;;5.03;3.50;;;16.50;23.60;;;;;;5073755;28;20180;-71
2022/08/27 03:50:49;;;;;;;11.67;5.20;;;16.60;20.00;;;;;;5075030;28;20643;-71
2022/08/27 03:53:17;;;;;;;4.87;3.80;;;16.60;22.50;;;;;;5074944;28;20161;-70
2022/08/27 03:55:43;;;;;;;10.80;3.90;;;16.70;22.40;;;;;;5074459;28;20286;-70
2022/08/27 03:58:10;;;;;;;7.77;3.40;;;16.70;13.40;;;;;;5074758;28;20231;-70
2022/08/27 04:00:37;;;;;;;5.03;3.37;;;16.70;14.90;;;;;;5074721;28;20173;-70
2022/08/27 04:03:04;;;;;;;7.07;3.57;;;16.70;10.70;;;;;;5074763;28;20210;-71
2022/08/27 04:05:31;;;;;;;7.73;3.43;;;16.70;13.80;;;;;;5074736;28;20177;-70
2022/08/27 04:07:56;;;;;;;6.70;3.30;;;16.80;8.10;;;;;;5074602;28;20636;-69
2022/08/27 04:10:22;;;;;;;5.77;3.77;;;16.80;8.20;;;;;;5073949;28;20306;-69
2022/08/27 04:12:48;;;;;;;3.70;3.20;;;16.80;7.40;;;;;;5074588;28;20169;-70
2022/08/27 04:15:13;;;;;;;5.90;3.37;;;16.80;2.20;;;;;;5074197;28;20165;-69
2022/08/27 04:17:39;;;;;;;6.07;3.17;;;16.80;1.70;;;;;;5072661;28;20216;-70
2022/08/27 04:20:07;;;;;;;8.70;3.90;;;16.80;3.30;;;;;;5074698;28;20169;-70
2022/08/27 04:22:33;;;;;;;5.67;3.60;;;16.70;6.30;;;;;;5074276;28;20177;-70
2022/08/27 04:24:59;;;;;;;6.30;3.20;;;16.50;15.50;;;;;;5073842;28;20628;-71
2022/08/27 04:27:26;;;;;;;4.20;3.00;;;16.40;27.30;;;;;;5074304;28;20207;-71
2022/08/27 04:29:57;;;;;;;6.80;3.23;;;16.30;35.30;;;;;;5074416;28;20181;-70
2022/08/27 04:32:23;;;;;;;9.10;3.87;;;16.10;43.70;;;;;;5074415;28;20168;-70
2022/08/27 04:34:53;;;;;;;9.00;3.90;;;16.10;47.60;;;;;;5074276;28;20164;-71
2022/08/27 04:37:18;;;;;;;10.10;4.80;;;16.10;50.20;;;;;;5073690;28;20235;-70
2022/08/27 04:39:44;;;;;;;5.90;3.47;;;16.10;50.90;;;;;;5073475;28;20628;-70
2022/08/27 04:42:09;;;;;;;5.43;3.80;;;16.10;51.30;;;;;;5073527;28;20165;-70
2022/08/27 04:44:35;;;;;;;6.30;3.27;;;16.20;45.40;;;;;;5074037;28;20165;-70
2022/08/27 04:47:03;;;;;;;5.90;3.87;;;16.20;46.00;;;;;;5073844;28;20180;-71
2022/08/27 04:49:29;;;;;;;6.33;3.50;;;16.20;48.50;;;;;;5073347;28;20176;-70
2022/08/27 04:51:55;;;;;;;10.13;3.80;;;16.20;46.20;;;;;;5073533;28;20214;-70
2022/08/27 04:54:21;;;;;;;6.73;3.73;;;16.20;47.70;;;;;;5073480;28;20204;-71
2022/08/27 04:56:48;;;;;;;5.33;3.50;;;16.20;48.60;;;;;;5073520;28;20211;-70
2022/08/27 04:59:13;;;;;;;9.13;3.80;;;16.20;51.60;;;;;;5073062;28;20264;-70
2022/08/27 05:01:40;;;;;;;5.87;3.70;;;16.30;46.90;;;;;;5073771;28;20214;-70
2022/08/27 05:04:07;;;;;;;9.67;3.90;;;16.30;45.00;;;;;;5073531;28;20639;-70
2022/08/27 05:06:35;;;;;;;8.50;4.40;;;16.30;46.10;;;;;;5073302;28;20193;-70
2022/08/27 05:09:01;;;;;;;5.70;3.90;;;16.40;44.00;;;;;;5072770;28;20223;-71
2022/08/27 05:11:31;;;;;;;9.17;4.33;;;16.50;33.50;;;;;;5073030;28;20536;-70
2022/08/27 05:13:57;;;;;;;8.77;4.00;;;16.50;34.60;;;;;;5072942;28;20177;-70
2022/08/27 05:16:23;;;;;;;13.07;4.13;;;16.60;28.20;;;;;;5072933;28;20640;-70
2022/08/27 05:18:50;;;;;;;8.83;3.60;;;16.60;25.30;;;;;;5073119;28;20228;-70
2022/08/27 05:21:23;;;;;;;9.17;4.13;;;16.80;28.40;;;;;;5073055;28;20164;-70
2022/08/27 05:23:50;;;;;;;7.53;3.93;;;17.20;20.20;;;;;;5072984;28;20631;-70
2022/08/27 05:26:15;;;;;;;8.33;4.07;;;17.50;1.00;;;;;;5073058;28;20161;-70
2022/08/27 05:28:42;;;;;;;7.13;3.67;;;18.10;1.00;;;;;;5073259;28;20180;-70
2022/08/27 05:31:10;;;;;;;7.05;3.45;;;18.40;1.00;;;;;;5073556;28;20528;-69
2022/08/27 05:33:38;;;;;;;6.25;3.22;;;18.50;1.00;;;;;;5073245;28;20165;-70
2022/08/27 05:36:04;;;;;;;7.20;3.95;;;18.50;1.00;;;;;;5072678;28;20183;-71
2022/08/27 05:38:32;;;;;;;6.73;3.47;;;18.30;1.00;;;;;;5073059;28;20172;-70
2022/08/27 05:41:10;;;;;;;7.70;3.47;;;18.10;1.00;;;;;;5072658;28;20173;-70
2022/08/27 05:43:37;;;;;;;7.13;3.50;;;17.80;1.00;;;;;;5071613;28;20168;-70
2022/08/27 05:46:06;;;;;;;8.33;3.57;;;17.70;1.00;;;;;;5072897;28;20198;-69
2022/08/27 05:48:34;;;;;;;9.47;3.60;;;17.80;1.00;;;;;;5072757;28;20264;-69
2022/08/27 05:51:06;;;;;;;5.50;3.70;;;17.80;1.00;;;;;;5072179;28;20979;-69
2022/08/27 05:53:32;;;;;;;7.23;3.50;;;17.90;1.00;;;;;;5071915;28;20171;-70
2022/08/27 05:55:59;;;;;;;7.03;3.30;;;17.90;1.00;;;;;;5072549;28;20255;-69
2022/08/27 06:01:09;;;;;;;5.23;3.50;;;17.60;1.00;;;;;;5073538;28;20195;-69
2022/08/27 06:03:36;;;;;;;6.53;3.93;;;17.60;1.00;;;;;;5072582;28;20632;-70
2022/08/27 06:06:08;;;;;;;9.73;3.87;;;17.60;1.00;;;;;;5071922;28;20177;-69
2022/08/27 06:08:35;;;;;;;5.20;3.13;;;17.70;1.00;;;;;;5071052;28;20311;-70
2022/08/27 06:11:02;;;;;;;9.70;3.77;;;17.80;1.00;;;;;;5071928;28;20198;-69
2022/08/27 06:13:28;;;;;;;6.87;3.43;;;17.80;1.00;;;;;;5071698;28;20301;-70
2022/08/27 06:16:06;;;;;;;7.27;3.53;;;18.10;1.00;;;;;;5071251;28;20172;-70
2022/08/27 06:18:32;;;;;;;6.43;3.43;;;18.30;1.00;;;;;;5071001;28;20208;-69
2022/08/27 06:20:58;;;;;;;9.90;3.40;;;18.60;1.00;;;;;;5071672;28;20184;-71
2022/08/27 06:23:24;;;;;;;5.38;3.08;;;18.70;1.00;;;;;;5072311;28;20165;-69
2022/08/27 06:25:50;;;;;;;7.82;3.03;;;18.70;1.00;;;;;;5072742;28;20624;-72
2022/08/27 06:28:19;;;;;;;3.70;2.97;;;18.60;1.00;;;;;;5072297;28;20169;-71
2022/08/27 06:30:45;;;;;;;5.00;2.88;;;18.90;1.00;;;;;;5072369;28;20168;-71
2022/08/27 06:33:10;;;;;;;6.47;2.80;;;19.30;99.90;;;;;;5072251;28;20255;-71
2022/08/27 06:35:36;;;;;;;3.42;2.67;;;20.20;99.90;;;;;;5072073;28;20624;-72
2022/08/27 06:38:02;;;;;;;3.05;2.42;;;21.40;1.00;;;;;;5072654;28;20221;-71
2022/08/27 06:40:27;;;;;;;4.80;2.65;;;22.60;1.00;;;;;;5072085;28;20172;-73
2022/08/27 06:42:53;;;;;;;7.60;2.50;;;23.20;1.00;;;;;;5072656;28;20255;-72
2022/08/27 06:45:19;;;;;;;3.65;2.22;;;22.70;99.90;;;;;;5071971;28;20207;-72
2022/08/27 06:47:45;;;;;;;4.45;2.20;;;21.80;1.00;;;;;;5072167;28;20187;-73
2022/08/27 06:50:10;;;;;;;4.18;2.40;;;22.70;1.00;;;;;;5071995;28;20165;-73
2022/08/27 06:52:36;;;;;;;3.45;2.50;;;22.90;99.90;;;;;;5071986;28;20656;-73
2022/08/27 06:55:03;;;;;;;4.53;2.53;;;22.40;99.90;;;;;;5072217;28;20616;-72
2022/08/27 06:57:28;;;;;;;4.05;2.40;;;21.60;1.00;;;;;;5071773;28;20558;-71
2022/08/27 06:59:54;;;;;;;5.50;2.22;;;21.00;1.00;;;;;;5070947;28;20179;-71
2022/08/27 07:02:20;;;;;;;7.85;2.20;;;20.70;1.00;;;;;;5071577;28;20175;-71
2022/08/27 07:04:46;;;;;;;4.55;2.47;;;20.60;99.90;;;;;;5072449;28;20166;-71
2022/08/27 07:07:12;;;;;;;2.97;2.28;;;21.20;1.00;;;;;;5076015;28;20619;-73
2022/08/27 07:09:39;;;;;;;4.03;2.10;;;22.30;1.00;;;;;;5075172;28;20303;-73
2022/08/27 07:12:05;;;;;;;2.53;1.83;;;22.40;99.90;;;;;;5075460;28;20180;-73
2022/08/27 07:14:31;;;;;;;5.97;2.10;;;22.40;99.90;;;;;;5075471;28;20169;-74
2022/08/27 07:16:58;;;;;;;5.35;2.28;;;22.50;99.90;;;;;;5074941;28;20590;-74
2022/08/27 07:19:24;;;;;;;3.15;1.77;;;23.90;33.30;;;;;;5075203;28;20181;-74
2022/08/27 07:21:49;;;;;;;4.30;1.92;;;24.90;1.00;;;;;;5075045;28;20222;-74
2022/08/27 07:24:16;;;;;;;2.42;1.80;;;25.40;1.00;;;;;;5075269;28;20234;-74
2022/08/27 07:26:42;;;;;;;5.30;2.08;;;26.20;99.90;;;;;;5075098;28;20648;-74
2022/08/27 07:29:11;;;;;;;2.25;1.70;;;27.60;99.90;;;;;;5075020;28;20168;-74
2022/08/27 07:31:37;;;;;;;2.85;1.60;;;28.80;99.90;;;;;;5075295;28;20207;-76
2022/08/27 07:34:04;;;;;;;2.70;1.85;;;29.80;99.90;;;;;;5074861;28;20260;-75
2022/08/27 07:36:30;;;;;;;5.25;1.55;;;30.00;99.90;;;;;;5075134;28;20411;-76
2022/08/27 07:38:56;;;;;;;4.90;1.83;;;30.80;99.90;;;;;;5075253;28;20281;-76
2022/08/27 07:41:21;;;;;;;2.47;1.70;;;31.90;99.90;;;;;;5075047;28;20632;-77
2022/08/27 07:46:31;;;;;;;2.55;1.83;;;32.70;96.20;;;;;;5074613;28;20207;-76
2022/08/27 07:48:57;;;;;;;4.40;1.85;;;32.80;78.50;;;;;;5074186;28;20259;-76
2022/08/27 07:51:25;;;;;;;3.78;1.58;;;32.60;76.80;;;;;;5074666;28;20173;-75
2022/08/27 07:53:51;;;;;;;2.75;1.30;;;31.10;72.40;;;;;;5074516;28;20169;-76
2022/08/27 07:56:17;;;;;;;4.88;1.65;;;31.50;80.10;;;;;;5074710;28;20232;-76
2022/08/27 07:58:43;;;;;;;3.65;1.83;;;32.10;67.40;;;;;;5074115;28;20218;-77
2022/08/27 08:01:10;;;;;;;3.78;1.95;;;32.40;57.00;;;;;;5073758;28;20652;-77
2022/08/27 08:03:35;;;;;;;3.83;1.25;;;31.70;50.80;;;;;;5074875;28;20187;-77
2022/08/27 08:06:07;;;;;;;1.40;1.30;;;31.50;54.80;;;;;;5073722;28;20173;-77
2022/08/27 08:08:34;;;;;;;6.00;1.55;;;32.20;48.40;;;;;;5073446;28;20251;-77
2022/08/27 08:11:02;;;;;;;1.95;1.50;;;33.10;39.40;;;;;;5074945;28;20173;-77
2022/08/27 08:13:29;;;;;;;2.92;1.65;;;33.80;27.80;;;;;;5074357;28;20171;-76
2022/08/27 08:15:56;;;;;;;4.53;1.45;;;33.00;26.10;;;;;;5073281;28;20172;-76
2022/08/27 08:18:21;;;;;;;2.03;1.50;;;33.40;23.20;;;;;;5073181;28;20660;-76
2022/08/27 08:20:47;;;;;;;3.83;1.70;;;34.30;17.70;;;;;;5074386;28;20183;-77
2022/08/27 08:23:12;;;;;;;2.72;1.60;;;34.50;13.30;;;;;;5073717;28;20218;-76
2022/08/27 08:25:39;;;;;;;3.08;1.63;;;33.80;10.30;;;;;;5073887;28;20179;-77
2022/08/27 08:28:05;;;;;;;2.92;1.42;;;34.20;9.00;;;;;;5073932;28;20181;-77
2022/08/27 08:30:30;;;;;;;1.50;1.40;;;34.60;7.20;;;;;;5073715;28;20169;-76
2022/08/27 08:32:56;;;;;;;4.35;1.77;;;33.80;3.30;;;;;;5074071;28;20169;-77
2022/08/27 08:35:23;;;;;;;8.63;1.50;;;31.60;8.90;;;;;;5074086;28;20644;-76
2022/08/27 08:37:49;;;;;;;5.15;1.58;;;28.50;28.50;;;;;;5073634;28;20216;-76
2022/08/27 08:40:49;;;;;;;2.17;1.35;;;29.10;34.50;;;;;;5073891;28;20252;-75
2022/08/27 08:43:36;;;;;;;2.53;1.20;;;29.60;21.20;;;;;;5011578;28;20274;-74
2022/08/27 08:46:08;;;;;;;3.53;1.73;;;28.20;41.20;;;;;;5011624;28;20657;-75
2022/08/27 08:48:35;;;;;;;2.00;1.63;;;29.00;41.60;;;;;;5011325;28;20230;-76
2022/08/27 08:51:04;;;;;;;2.95;1.55;;;28.00;44.40;;;;;;5012141;28;20175;-75
2022/08/27 08:53:39;;;;;;;1.55;1.45;;;27.80;48.60;;;;;;5011689;28;20186;-75
2022/08/27 08:56:11;;;;;;;2.55;1.50;;;27.60;57.20;;;;;;5011775;28;20178;-75
2022/08/27 08:59:02;;;;;;;2.35;1.42;;;27.70;57.00;;;;;;4993830;28;20236;-75
2022/08/27 09:01:28;;;;;;;8.57;1.77;;;28.60;53.10;;;;;;5011399;28;20641;-76
2022/08/27 09:03:59;;;;;;;2.20;1.60;;;29.50;35.80;;;;;;5011944;28;20261;-76
2022/08/27 09:06:28;;;;;;;3.05;1.58;;;29.50;40.00;;;;;;5011647;28;20182;-76
2022/08/27 09:08:54;;;;;;;1.80;1.70;;;30.10;35.80;;;;;;5011115;28;20304;-76
2022/08/27 09:11:34;;;;;;;3.33;2.08;;;29.60;31.90;;;;;;5011452;28;20638;-75
2022/08/27 09:14:29;;;;;;;4.57;1.75;;;29.50;35.50;;;;;;4994664;28;20186;-76
2022/08/27 09:16:57;;;;;;;3.88;1.90;;;28.30;41.20;;;;;;5007487;28;20222;-76
2022/08/27 09:19:23;;;;;;;2.75;1.63;;;27.80;48.40;;;;;;5029172;28;20675;-74
2022/08/27 09:22:01;;;;;;;3.45;1.58;;;27.50;50.10;;;;;;5053458;28;20284;-76
2022/08/27 09:24:43;;;;;;;2.38;1.85;;;27.80;52.10;;;;;;5052919;28;20165;-75
2022/08/27 09:27:13;;;;;;;3.72;2.00;;;27.10;57.10;;;;;;5052627;28;20200;-75
2022/08/27 09:29:50;;;;;;;3.58;1.67;;;25.70;74.60;;;;;;5053054;28;20173;-75
2022/08/27 09:32:26;;;;;;;2.55;1.70;;;26.90;79.40;;;;;;5052544;28;20168;-76
2022/08/27 09:34:55;;;;;;;4.15;1.83;;;28.40;66.10;;;;;;5051918;28;20173;-75
2022/08/27 09:37:38;;;;;;;2.58;1.77;;;28.80;48.00;;;;;;5051126;28;20726;-76
2022/08/27 09:40:12;;;;;;;4.03;1.63;;;27.80;52.30;;;;;;5052909;28;20169;-77
2022/08/27 09:42:43;;;;;;;3.20;1.98;;;27.70;42.00;;;;;;5052379;28;20210;-78
2022/08/27 09:45:13;;;;;;;2.97;1.55;;;26.90;63.20;;;;;;5052972;28;20667;-77
2022/08/27 09:47:48;;;;;;;4.47;1.70;;;26.00;71.10;;;;;;5052893;28;20268;-75
2022/08/27 09:50:17;;;;;;;3.08;1.67;;;25.60;86.80;;;;;;5053193;28;20188;-74
2022/08/27 09:52:49;;;;;;;3.25;1.88;;;26.20;89.30;;;;;;5052308;28;20169;-76
2022/08/27 09:55:33;;;;;;;5.10;1.67;;;28.40;68.70;;;;;;5052918;28;20183;-76
2022/08/27 09:57:59;;;;;;;3.97;1.90;;;27.70;53.20;;;;;;5052116;28;20236;-78
2022/08/27 10:00:42;;;;;;;4.70;1.77;;;27.10;59.50;;;;;;5052346;28;20651;-78
2022/08/27 10:03:09;;;;;;;1.60;1.50;;;27.10;61.70;;;;;;5052521;28;20173;-78
2022/08/27 10:05:46;;;;;;;2.75;1.77;;;26.40;60.40;;;;;;5052021;28;20173;-78
2022/08/27 10:08:42;;;;;;;2.95;1.70;;;25.30;80.70;;;;;;5052724;28;20188;-77
2022/08/27 10:11:17;;;;;;;2.35;1.70;;;24.80;89.60;;;;;;5072872;28;20187;-77
2022/08/27 10:13:50;;;;;;;3.75;1.92;;;24.20;96.00;;;;;;5072651;28;20172;-76
2022/08/27 10:16:42;;;;;;;3.42;1.90;;;24.30;98.20;;;;;;5071702;28;20259;-76
2022/08/27 10:19:16;;;;;;;2.40;1.90;;;24.70;98.70;;;;;;5072654;28;20226;-76
2022/08/27 10:22:07;;;;;;;4.22;1.70;;;24.90;99.20;;;;;;5072461;28;20178;-76
2022/08/27 10:24:54;;;;;;;2.35;1.90;;;25.40;97.60;;;;;;5010288;28;20186;-76
2022/08/27 10:27:28;;;;;;;3.42;1.70;;;25.50;94.80;;;;;;5010140;28;20639;-76
2022/08/27 10:30:13;;;;;;;3.65;1.67;;;25.50;95.50;;;;;;5010314;28;20638;-77
2022/08/27 10:32:57;;;;;;;5.15;2.00;;;24.80;97.50;;;;;;5010760;28;20265;-77
2022/08/27 10:35:30;;;;;;;6.65;2.30;;;24.40;99.20;;;;;;5009738;28;20182;-75
2022/08/27 10:38:20;;;;;;;3.13;2.38;;;24.70;96.80;;;;;;5010852;28;20226;-75
2022/08/27 10:41:00;;;;;;;3.25;2.13;;;25.20;96.20;;;;;;5012286;28;20181;-76
2022/08/27 10:43:36;;;;;;;6.07;2.40;;;25.90;93.20;;;;;;4997730;28;20232;-77
2022/08/27 10:46:02;;;;;;;2.45;2.20;;;26.20;85.40;;;;;;5014285;28;20171;-76
2022/08/27 10:48:37;;;;;;;5.18;1.85;;;26.50;81.70;;;;;;5014140;28;20189;-76
2022/08/27 10:51:15;;;;;;;1.90;1.80;;;27.90;73.70;;;;;;5013909;28;20289;-76
2022/08/27 10:53:53;;;;;;;3.85;2.00;;;29.40;51.20;;;;;;5013860;28;20170;-77
2022/08/27 10:56:30;;;;;;;3.88;2.17;;;30.20;36.80;;;;;;5012942;28;20358;-76
2022/08/27 10:59:01;;;;;;;5.93;2.33;;;30.10;27.00;;;;;;4996617;28;20170;-76
2022/08/27 11:01:41;;;;;;;2.58;1.80;;;29.30;31.00;;;;;;5043000;28;20184;-77
2022/08/27 11:04:31;;;;;;;3.83;2.10;;;28.40;43.10;;;;;;5074426;28;20608;-78
2022/08/27 11:07:05;;;;;;;5.45;2.03;;;27.80;54.20;;;;;;5068034;28;20542;-76
2022/08/27 11:09:46;;;;;;;4.07;2.08;;;27.50;49.10;;;;;;5075080;28;20223;-76
2022/08/27 11:12:17;;;;;;;4.07;1.70;;;27.10;66.00;;;;;;5075851;28;20474;-76
2022/08/27 11:14:57;;;;;;;3.22;2.63;;;27.00;68.90;;;;;;5075115;28;20355;-76
2022/08/27 11:17:38;;;;;;;4.18;2.45;;;26.70;69.40;;;;;;5075241;28;20686;-76
2022/08/27 11:20:15;;;;;;;5.63;2.22;;;26.40;77.80;;;;;;5075268;28;20172;-75
2022/08/27 11:23:03;;;;;;;4.88;2.20;;;26.10;84.40;;;;;;5075426;28;20641;-76
2022/08/27 11:25:38;;;;;;;3.90;2.47;;;25.90;88.40;;;;;;5075072;28;20177;-74
2022/08/27 11:28:05;;;;;;;5.32;2.00;;;25.60;93.50;;;;;;5073367;28;20199;-75
2022/08/27 11:30:33;;;;;;;3.88;2.40;;;25.60;95.70;;;;;;5075440;28;20267;-74
2022/08/27 11:33:13;;;;;;;3.80;2.25;;;25.70;96.60;;;;;;5075656;28;20169;-75
2022/08/27 11:35:54;;;;;;;3.92;2.13;;;25.70;98.10;;;;;;5073913;28;20244;-74
2022/08/27 11:38:37;;;;;;;3.63;1.98;;;25.50;98.80;;;;;;5074521;28;20732;-75
2022/08/27 11:41:09;;;;;;;5.15;2.35;;;25.10;99.90;;;;;;5074824;28;20176;-74
2022/08/27 11:43:36;;;;;;;2.95;2.30;;;25.10;99.90;;;;;;5075178;28;20169;-75
2022/08/27 11:46:06;;;;;;;2.83;2.20;;;25.10;99.90;;;;;;5075013;28;20255;-75
2022/08/27 11:48:39;;;;;;;6.40;1.95;;;25.00;99.90;;;;;;5074028;28;20241;-75
2022/08/27 11:51:25;;;;;;;2.30;1.90;;;25.20;99.90;;;;;;5073184;28;20226;-75
2022/08/27 11:54:00;;;;;;;3.25;2.15;;;25.10;99.90;;;;;;5074619;28;20592;-74
2022/08/27 11:56:29;;;;;;;5.47;2.10;;;25.30;99.90;;;;;;5073962;28;20654;-74
2022/08/27 11:58:55;;;;;;;3.60;2.40;;;25.40;99.90;;;;;;5074465;28;20177;-74
2022/08/27 12:01:27;;;;;;;6.50;2.13;;;25.20;99.90;;;;;;5073508;28;20237;-75
2022/08/27 12:04:23;;;;;;;3.70;2.30;;;25.20;99.90;;;;;;5074240;28;20204;-75
2022/08/27 12:06:52;;;;;;;4.40;2.30;;;24.10;99.90;;;;;;5074753;28;20161;-74
2022/08/27 12:09:21;;;;;;;4.78;2.55;;;24.20;99.90;;;;;;5073327;28;20220;-74
2022/08/27 12:12:34;;;;;;;3.95;2.45;;;24.40;99.90;;;;;;5074722;28;20164;-73
2022/08/27 12:15:17;;;;;;;3.42;2.40;;;24.70;99.90;;;;;;5012043;28;20181;-74
2022/08/27 12:17:54;;;;;;;4.35;2.10;;;24.90;99.90;;;;;;5012165;28;20260;-74
2022/08/27 12:20:54;;;;;;;3.83;2.03;;;24.20;99.90;;;;;;5012241;28;20240;-74
2022/08/27 12:23:46;;;;;;;6.45;2.53;;;23.70;99.90;;;;;;4953572;29;20314;-74
2022/08/27 12:26:30;;;;;;;3.08;2.20;;;23.70;99.90;;;;;;4952981;29;20212;-73
2022/08/27 12:29:19;;;;;;;4.07;2.78;;;24.10;99.90;;;;;;4952656;29;20172;-73
2022/08/27 12:31:47;;;;;;;3.92;2.08;;;24.50;99.90;;;;;;4953739;29;20176;-72
2022/08/27 12:34:18;;;;;;;3.65;2.20;;;24.80;99.90;;;;;;4953634;29;20188;-73
2022/08/27 12:36:47;;;;;;;5.70;2.40;;;25.10;99.90;;;;;;4952676;29;20216;-73
2022/08/27 12:39:17;;;;;;;5.95;2.28;;;25.30;99.90;;;;;;4953161;29;20188;-72
2022/08/27 12:41:48;;;;;;;3.72;2.30;;;25.40;99.90;;;;;;4953290;29;20200;-74
2022/08/27 12:44:21;;;;;;;4.85;2.40;;;25.60;99.90;;;;;;4952511;29;20176;-74
2022/08/27 12:46:48;;;;;;;3.00;2.30;;;25.60;99.90;;;;;;5006640;28;20190;-74
2022/08/27 12:49:24;;;;;;;3.40;2.63;;;25.80;99.90;;;;;;5010534;28;20175;-74
2022/08/27 12:51:52;;;;;;;6.13;2.30;;;25.00;99.90;;;;;;5010963;28;20650;-74
2022/08/27 12:54:40;;;;;;;3.33;2.55;;;24.70;99.90;;;;;;5011277;28;20193;-74
2022/08/27 12:57:14;;;;;;;3.08;2.35;;;25.00;99.90;;;;;;5011664;28;20206;-73
2022/08/27 12:59:55;;;;;;;2.97;2.45;;;25.20;99.90;;;;;;5044017;28;20176;-73
2022/08/27 13:02:51;;;;;;;2.72;2.22;;;25.00;99.90;;;;;;5072487;28;20172;-73
2022/08/27 13:05:20;;;;;;;3.08;1.95;;;25.00;99.90;;;;;;5072663;28;20473;-74
2022/08/27 13:07:50;;;;;;;3.67;2.40;;;25.40;99.90;;;;;;5073331;28;20164;-74
2022/08/27 13:10:30;;;;;;;2.85;2.25;;;25.80;99.90;;;;;;5072926;28;20307;-74
2022/08/27 13:13:06;;;;;;;4.88;2.67;;;25.70;99.90;;;;;;5073034;28;20169;-72